createdAt,value
2018-02-19T00:00:25.081Z,17.73
2018-02-19T00:01:25.068Z,17.73
2018-02-19T00:02:25.090Z,17.67
2018-02-19T00:03:25.083Z,17.7
2018-02-19T00:04:25.084Z,17.68
2018-02-19T00:05:25.074Z,17.71
2018-02-19T00:06:25.076Z,17.68
2018-02-19T00:07:25.078Z,17.66
2018-02-19T00:08:25.090Z,17.66
2018-02-19T00:09:25.082Z,17.66
2018-02-19T00:10:25.084Z,17.64
2018-02-19T00:11:25.081Z,17.66
2018-02-19T00:12:25.060Z,17.66
2018-02-19T00:13:25.067Z,17.66
2018-02-19T00:14:25.104Z,17.61
2018-02-19T00:15:25.094Z,17.63
2018-02-19T00:16:25.074Z,17.64
2018-02-19T00:17:25.109Z,17.64
2018-02-19T00:18:25.073Z,17.64
2018-02-19T00:19:25.104Z,17.61
2018-02-19T00:20:25.076Z,17.64
2018-02-19T00:21:25.168Z,17.61
2018-02-19T00:22:25.187Z,17.6
2018-02-19T00:23:25.059Z,17.61
2018-02-19T00:24:25.062Z,17.61
2018-02-19T00:25:25.167Z,17.6
2018-02-19T00:26:25.078Z,17.61
2018-02-19T00:27:24.945Z,17.59
2018-02-19T00:28:25.066Z,17.59
2018-02-19T00:29:25.076Z,17.59
2018-02-19T00:30:25.064Z,17.57
2018-02-19T00:31:25.075Z,17.59
2018-02-19T00:32:25.062Z,17.57
2018-02-19T00:33:25.064Z,17.54
2018-02-19T00:34:25.070Z,17.56
2018-02-19T00:35:25.068Z,17.56
2018-02-19T00:36:25.071Z,17.57
2018-02-19T00:37:25.072Z,17.54
2018-02-19T00:38:25.078Z,17.57
2018-02-19T00:39:25.095Z,17.53
2018-02-19T00:40:25.046Z,17.54
2018-02-19T00:41:25.098Z,17.54
2018-02-19T00:42:25.066Z,17.54
2018-02-19T00:43:25.079Z,17.53
2018-02-19T00:44:25.468Z,17.54
2018-02-19T00:45:25.074Z,17.54
2018-02-19T00:46:25.102Z,17.54
2018-02-19T00:47:25.072Z,17.52
2018-02-19T00:48:25.057Z,17.52
2018-02-19T00:49:25.105Z,17.52
2018-02-19T00:50:25.076Z,17.53
2018-02-19T00:51:25.090Z,17.52
2018-02-19T00:52:25.056Z,17.5
2018-02-19T00:53:25.096Z,17.49
2018-02-19T00:54:25.081Z,17.48
2018-02-19T00:55:25.057Z,17.52
2018-02-19T00:56:25.029Z,17.5
2018-02-19T00:57:25.055Z,17.46
2018-02-19T00:58:25.032Z,17.46
2018-02-19T00:59:25.065Z,17.48
2018-02-19T01:00:25.058Z,17.46
2018-02-19T01:01:25.076Z,17.49
2018-02-19T01:02:25.054Z,17.49
2018-02-19T01:03:25.036Z,17.46
2018-02-19T01:04:25.060Z,17.46
2018-02-19T01:05:25.091Z,17.45
2018-02-19T01:06:25.065Z,17.46
2018-02-19T01:07:25.048Z,17.45
2018-02-19T01:08:25.048Z,17.42
2018-02-19T01:09:25.080Z,17.42
2018-02-19T01:10:25.122Z,17.4
2018-02-19T01:11:25.102Z,17.43
2018-02-19T01:12:25.066Z,17.4
2018-02-19T01:13:25.065Z,17.39
2018-02-19T01:14:25.061Z,17.42
2018-02-19T01:15:25.081Z,17.42
2018-02-19T01:16:25.046Z,17.42
2018-02-19T01:17:25.064Z,17.4
2018-02-19T01:18:25.049Z,17.42
2018-02-19T01:19:25.054Z,17.4
2018-02-19T01:20:25.061Z,17.39
2018-02-19T01:21:25.064Z,17.42
2018-02-19T01:22:25.040Z,17.39
2018-02-19T01:23:25.048Z,17.4
2018-02-19T01:24:25.034Z,17.38
2018-02-19T01:25:25.033Z,17.38
2018-02-19T01:26:25.055Z,17.38
2018-02-19T01:27:25.049Z,17.35
2018-02-19T01:28:25.062Z,17.35
2018-02-19T01:29:25.060Z,17.36
2018-02-19T01:30:25.049Z,17.36
2018-02-19T01:31:25.043Z,17.35
2018-02-19T01:32:25.026Z,17.33
2018-02-19T01:33:25.068Z,17.33
2018-02-19T01:34:25.039Z,17.33
2018-02-19T01:35:25.067Z,17.35
2018-02-19T01:36:25.045Z,17.35
2018-02-19T01:37:25.061Z,17.33
2018-02-19T01:38:25.072Z,17.32
2018-02-19T01:39:25.058Z,17.35
2018-02-19T01:40:25.057Z,17.35
2018-02-19T01:41:25.051Z,17.33
2018-02-19T01:42:25.034Z,17.32
2018-02-19T01:43:25.049Z,17.31
2018-02-19T01:44:25.039Z,17.29
2018-02-19T01:45:25.093Z,17.31
2018-02-19T01:46:25.046Z,17.32
2018-02-19T01:47:25.065Z,17.31
2018-02-19T01:48:25.088Z,17.29
2018-02-19T01:49:25.051Z,17.29
2018-02-19T01:50:25.077Z,17.28
2018-02-19T01:51:25.045Z,17.26
2018-02-19T01:52:25.045Z,17.28
2018-02-19T01:53:25.042Z,17.28
2018-02-19T01:54:25.057Z,17.26
2018-02-19T01:55:25.099Z,17.26
2018-02-19T01:56:25.036Z,17.28
2018-02-19T01:57:25.047Z,17.23
2018-02-19T01:58:25.036Z,17.25
2018-02-19T01:59:25.031Z,17.25
2018-02-19T02:00:25.032Z,17.25
2018-02-19T02:01:25.032Z,17.26
2018-02-19T02:02:25.063Z,17.26
2018-02-19T02:03:25.031Z,17.26
2018-02-19T02:04:25.042Z,17.23
2018-02-19T02:05:25.049Z,17.23
2018-02-19T02:06:25.030Z,17.22
2018-02-19T02:07:25.040Z,17.26
2018-02-19T02:08:25.037Z,17.25
2018-02-19T02:09:25.037Z,17.22
2018-02-19T02:10:25.047Z,17.23
2018-02-19T02:11:25.031Z,17.23
2018-02-19T02:12:25.040Z,17.22
2018-02-19T02:13:25.026Z,17.22
2018-02-19T02:14:25.042Z,17.18
2018-02-19T02:15:25.095Z,17.21
2018-02-19T02:16:25.046Z,17.21
2018-02-19T02:17:25.047Z,17.19
2018-02-19T02:18:25.030Z,17.19
2018-02-19T02:19:25.056Z,17.19
2018-02-19T02:20:25.050Z,17.19
2018-02-19T02:21:25.063Z,17.19
2018-02-19T02:22:25.196Z,17.18
2018-02-19T02:23:25.021Z,17.16
2018-02-19T02:24:25.029Z,17.18
2018-02-19T02:25:25.069Z,17.18
2018-02-19T02:26:25.035Z,17.18
2018-02-19T02:27:25.055Z,17.16
2018-02-19T02:28:25.025Z,17.14
2018-02-19T02:29:25.015Z,17.15
2018-02-19T02:30:25.040Z,17.14
2018-02-19T02:31:25.051Z,17.14
2018-02-19T02:32:25.035Z,17.14
2018-02-19T02:33:25.213Z,17.12
2018-02-19T02:34:25.032Z,17.14
2018-02-19T02:35:25.030Z,17.12
2018-02-19T02:36:25.042Z,17.14
2018-02-19T02:37:25.064Z,17.12
2018-02-19T02:38:25.044Z,17.12
2018-02-19T02:39:25.026Z,17.12
2018-02-19T02:40:25.029Z,17.11
2018-02-19T02:41:25.167Z,17.12
2018-02-19T02:42:25.078Z,17.08
2018-02-19T02:43:25.059Z,17.12
2018-02-19T02:44:25.057Z,17.08
2018-02-19T02:45:25.022Z,17.11
2018-02-19T02:46:25.044Z,17.11
2018-02-19T02:47:25.022Z,17.09
2018-02-19T02:48:25.041Z,17.09
2018-02-19T02:49:25.132Z,17.09
2018-02-19T02:50:25.027Z,17.06
2018-02-19T02:51:25.072Z,17.06
2018-02-19T02:52:25.110Z,17.09
2018-02-19T02:53:25.027Z,17.06
2018-02-19T02:54:25.025Z,17.09
2018-02-19T02:55:25.010Z,17.09
2018-02-19T02:56:25.278Z,17.08
2018-02-19T02:57:25.019Z,17.06
2018-02-19T02:58:25.027Z,17.04
2018-02-19T02:59:25.009Z,17.05
2018-02-19T03:00:25.081Z,17.06
2018-02-19T03:01:25.032Z,17.04
2018-02-19T03:02:25.027Z,17.05
2018-02-19T03:03:25.018Z,17.05
2018-02-19T03:04:25.034Z,17.04
2018-02-19T03:05:24.998Z,17.02
2018-02-19T03:06:25.067Z,17.02
2018-02-19T03:07:25.009Z,17.04
2018-02-19T03:08:25.039Z,17.02
2018-02-19T03:09:25.017Z,17.02
2018-02-19T03:10:25.007Z,17.04
2018-02-19T03:11:25.038Z,17.04
2018-02-19T03:12:24.989Z,17.04
2018-02-19T03:13:25.020Z,17.02
2018-02-19T03:14:25.000Z,17.01
2018-02-19T03:15:25.010Z,17.02
2018-02-19T03:16:25.056Z,17.01
2018-02-19T03:17:25.087Z,16.99
2018-02-19T03:18:25.002Z,16.99
2018-02-19T03:19:24.991Z,16.98
2018-02-19T03:20:25.027Z,16.99
2018-02-19T03:21:25.016Z,16.99
2018-02-19T03:22:25.009Z,16.98
2018-02-19T03:23:24.992Z,16.97
2018-02-19T03:24:25.047Z,16.98
2018-02-19T03:25:25.058Z,16.97
2018-02-19T03:26:25.041Z,16.98
2018-02-19T03:27:25.022Z,16.97
2018-02-19T03:28:25.006Z,16.98
2018-02-19T03:29:24.993Z,16.98
2018-02-19T03:30:25.032Z,16.97
2018-02-19T03:31:25.061Z,16.95
2018-02-19T03:32:25.026Z,16.94
2018-02-19T03:33:25.018Z,16.94
2018-02-19T03:34:25.023Z,16.95
2018-02-19T03:35:25.131Z,16.94
2018-02-19T03:36:25.037Z,16.92
2018-02-19T03:37:25.022Z,16.94
2018-02-19T03:38:25.016Z,16.95
2018-02-19T03:39:25.043Z,16.92
2018-02-19T03:40:25.023Z,16.94
2018-02-19T03:41:25.298Z,16.92
2018-02-19T03:42:25.034Z,16.91
2018-02-19T03:43:25.019Z,16.94
2018-02-19T03:44:25.010Z,16.92
2018-02-19T03:45:25.048Z,16.91
2018-02-19T03:46:25.055Z,16.92
2018-02-19T03:47:25.023Z,16.91
2018-02-19T03:48:25.005Z,16.91
2018-02-19T03:49:25.023Z,16.9
2018-02-19T03:50:25.010Z,16.9
2018-02-19T03:51:25.018Z,16.9
2018-02-19T03:52:25.028Z,16.88
2018-02-19T03:53:25.027Z,16.87
2018-02-19T03:54:25.052Z,16.87
2018-02-19T03:55:25.038Z,16.86
2018-02-19T03:56:25.020Z,16.87
2018-02-19T03:57:25.045Z,16.87
2018-02-19T03:58:25.050Z,16.86
2018-02-19T03:59:25.013Z,16.86
2018-02-19T04:00:25.041Z,16.88
2018-02-19T04:01:25.015Z,16.87
2018-02-19T04:02:25.124Z,16.87
2018-02-19T04:03:25.015Z,16.87
2018-02-19T04:04:25.021Z,16.86
2018-02-19T04:05:25.009Z,16.83
2018-02-19T04:06:25.014Z,16.86
2018-02-19T04:07:25.035Z,16.86
2018-02-19T04:08:25.042Z,16.84
2018-02-19T04:09:25.008Z,16.84
2018-02-19T04:10:25.120Z,16.86
2018-02-19T04:11:24.995Z,16.84
2018-02-19T04:12:25.009Z,16.84
2018-02-19T04:13:25.036Z,16.83
2018-02-19T04:14:25.032Z,16.81
2018-02-19T04:15:25.039Z,16.83
2018-02-19T04:16:24.983Z,16.83
2018-02-19T04:17:24.990Z,16.81
2018-02-19T04:18:25.025Z,16.8
2018-02-19T04:19:25.034Z,16.83
2018-02-19T04:20:24.986Z,16.83
2018-02-19T04:21:24.996Z,16.8
2018-02-19T04:22:24.986Z,16.8
2018-02-19T04:23:25.112Z,16.8
2018-02-19T04:24:25.009Z,16.81
2018-02-19T04:25:25.002Z,16.8
2018-02-19T04:26:24.987Z,16.81
2018-02-19T04:27:24.985Z,16.81
2018-02-19T04:28:24.991Z,16.8
2018-02-19T04:29:24.991Z,16.8
2018-02-19T04:30:24.989Z,16.8
2018-02-19T04:31:25.031Z,16.77
2018-02-19T04:32:24.981Z,16.78
2018-02-19T04:33:24.977Z,16.8
2018-02-19T04:34:24.984Z,16.77
2018-02-19T04:35:24.992Z,16.77
2018-02-19T04:36:25.010Z,16.78
2018-02-19T04:37:24.991Z,16.77
2018-02-19T04:38:24.981Z,16.76
2018-02-19T04:39:24.986Z,16.77
2018-02-19T04:40:24.969Z,16.77
2018-02-19T04:41:24.983Z,16.77
2018-02-19T04:42:25.030Z,16.77
2018-02-19T04:43:25.005Z,16.73
2018-02-19T04:44:25.049Z,16.74
2018-02-19T04:45:25.000Z,16.76
2018-02-19T04:46:24.971Z,16.74
2018-02-19T04:47:24.986Z,16.74
2018-02-19T04:48:24.979Z,16.76
2018-02-19T04:49:24.975Z,16.76
2018-02-19T04:50:24.968Z,16.74
2018-02-19T04:51:24.982Z,16.77
2018-02-19T04:52:24.983Z,16.76
2018-02-19T04:53:24.981Z,16.74
2018-02-19T04:54:24.988Z,16.76
2018-02-19T04:55:24.966Z,16.77
2018-02-19T04:56:24.961Z,16.76
2018-02-19T04:57:24.993Z,16.77
2018-02-19T04:58:24.961Z,16.78
2018-02-19T04:59:24.991Z,16.77
2018-02-19T05:00:24.963Z,16.77
2018-02-19T05:01:24.986Z,16.78
2018-02-19T05:02:25.111Z,16.78
2018-02-19T05:03:24.975Z,16.78
2018-02-19T05:04:24.980Z,16.77
2018-02-19T05:05:24.967Z,16.77
2018-02-19T05:06:24.985Z,16.76
2018-02-19T05:07:24.984Z,16.77
2018-02-19T05:08:25.003Z,16.78
2018-02-19T05:09:25.005Z,16.8
2018-02-19T05:10:24.991Z,16.8
2018-02-19T05:11:24.968Z,16.78
2018-02-19T05:12:24.982Z,16.8
2018-02-19T05:13:24.982Z,16.81
2018-02-19T05:14:24.984Z,16.83
2018-02-19T05:15:24.965Z,16.86
2018-02-19T05:16:24.961Z,16.87
2018-02-19T05:17:24.970Z,16.86
2018-02-19T05:18:24.991Z,16.87
2018-02-19T05:19:24.974Z,16.88
2018-02-19T05:20:24.960Z,16.9
2018-02-19T05:21:24.984Z,16.91
2018-02-19T05:22:24.966Z,16.92
2018-02-19T05:23:24.994Z,16.92
2018-02-19T05:24:24.967Z,16.94
2018-02-19T05:25:24.953Z,16.97
2018-02-19T05:26:24.984Z,16.98
2018-02-19T05:27:24.964Z,17.01
2018-02-19T05:28:24.988Z,17.01
2018-02-19T05:29:24.956Z,17.05
2018-02-19T05:30:24.973Z,17.06
2018-02-19T05:31:24.952Z,17.06
2018-02-19T05:32:24.958Z,17.09
2018-02-19T05:33:24.972Z,17.09
2018-02-19T05:34:24.952Z,17.11
2018-02-19T05:35:24.960Z,17.14
2018-02-19T05:36:24.959Z,17.15
2018-02-19T05:37:24.984Z,17.19
2018-02-19T05:38:24.962Z,17.19
2018-02-19T05:39:24.952Z,17.22
2018-02-19T05:40:24.959Z,17.22
2018-02-19T05:41:24.961Z,17.23
2018-02-19T05:42:24.944Z,17.28
2018-02-19T05:43:24.977Z,17.26
2018-02-19T05:44:24.949Z,17.28
2018-02-19T05:45:24.970Z,17.31
2018-02-19T05:46:24.965Z,17.32
2018-02-19T05:47:24.952Z,17.32
2018-02-19T05:48:24.954Z,17.33
2018-02-19T05:49:24.953Z,17.36
2018-02-19T05:50:24.972Z,17.38
2018-02-19T05:51:24.974Z,17.38
2018-02-19T05:52:24.940Z,17.4
2018-02-19T05:53:24.967Z,17.42
2018-02-19T05:54:24.950Z,17.43
2018-02-19T05:55:24.976Z,17.43
2018-02-19T05:56:24.946Z,17.45
2018-02-19T05:57:24.962Z,17.46
2018-02-19T05:58:25.042Z,17.48
2018-02-19T05:59:24.964Z,17.48
2018-02-19T06:00:24.953Z,17.5
2018-02-19T06:01:24.935Z,17.5
2018-02-19T06:02:24.945Z,17.52
2018-02-19T06:03:24.946Z,17.53
2018-02-19T06:04:24.986Z,17.56
2018-02-19T06:05:24.953Z,17.56
2018-02-19T06:06:25.069Z,17.56
2018-02-19T06:07:24.949Z,17.59
2018-02-19T06:08:24.954Z,17.59
2018-02-19T06:09:24.960Z,17.6
2018-02-19T06:10:24.961Z,17.56
2018-02-19T06:11:24.942Z,17.45
2018-02-19T06:12:25.088Z,17.38
2018-02-19T06:13:24.947Z,17.39
2018-02-19T06:14:24.957Z,17.39
2018-02-19T06:15:24.928Z,17.43
2018-02-19T06:16:24.944Z,17.46
2018-02-19T06:17:24.936Z,17.48
2018-02-19T06:18:24.933Z,17.49
2018-02-19T06:19:24.947Z,17.5
2018-02-19T06:20:24.961Z,17.52
2018-02-19T06:21:24.951Z,17.54
2018-02-19T06:22:24.937Z,17.54
2018-02-19T06:23:24.938Z,17.59
2018-02-19T06:24:25.093Z,17.56
2018-02-19T06:25:24.949Z,17.57
2018-02-19T06:26:24.943Z,17.57
2018-02-19T06:27:24.933Z,17.61
2018-02-19T06:28:24.929Z,17.6
2018-02-19T06:29:24.950Z,17.61
2018-02-19T06:30:24.928Z,17.61
2018-02-19T06:31:24.927Z,17.63
2018-02-19T06:32:24.938Z,17.63
2018-02-19T06:33:24.945Z,17.61
2018-02-19T06:34:24.959Z,17.66
2018-02-19T06:35:24.940Z,17.66
2018-02-19T06:36:24.922Z,17.67
2018-02-19T06:37:24.956Z,17.66
2018-02-19T06:38:24.977Z,17.68
2018-02-19T06:39:24.971Z,17.7
2018-02-19T06:40:25.110Z,17.67
2018-02-19T06:41:24.925Z,17.7
2018-02-19T06:42:24.938Z,17.7
2018-02-19T06:43:25.352Z,17.71
2018-02-19T06:44:24.982Z,17.7
2018-02-19T06:45:24.931Z,17.73
2018-02-19T06:46:24.944Z,17.78
2018-02-19T06:47:24.951Z,17.77
2018-02-19T06:48:24.941Z,17.67
2018-02-19T06:49:24.948Z,17.42
2018-02-19T06:50:25.040Z,17.19
2018-02-19T06:51:24.964Z,16.98
2018-02-19T06:52:24.963Z,16.83
2018-02-19T06:53:24.926Z,16.66
2018-02-19T06:54:25.375Z,16.56
2018-02-19T06:55:24.959Z,16.56
2018-02-19T06:56:24.928Z,16.66
2018-02-19T06:57:24.957Z,16.71
2018-02-19T06:58:24.977Z,16.77
2018-02-19T06:59:24.962Z,16.84
2018-02-19T07:00:24.971Z,16.9
2018-02-19T07:01:24.923Z,16.97
2018-02-19T07:02:24.986Z,17.01
2018-02-19T07:03:24.941Z,17.06
2018-02-19T07:04:24.940Z,17.09
2018-02-19T07:05:24.938Z,17.11
2018-02-19T07:06:24.978Z,17.14
2018-02-19T07:07:24.945Z,17.16
2018-02-19T07:08:24.929Z,17.21
2018-02-19T07:09:24.959Z,17.21
2018-02-19T07:10:24.935Z,17.22
2018-02-19T07:11:24.968Z,17.19
2018-02-19T07:12:24.928Z,17.21
2018-02-19T07:13:24.964Z,17.21
2018-02-19T07:14:24.937Z,17.22
2018-02-19T07:15:24.939Z,17.23
2018-02-19T07:16:24.931Z,17.26
2018-02-19T07:17:24.941Z,17.28
2018-02-19T07:18:24.975Z,17.28
2018-02-19T07:19:24.931Z,17.31
2018-02-19T07:20:24.947Z,17.32
2018-02-19T07:21:24.926Z,17.35
2018-02-19T07:22:24.923Z,17.32
2018-02-19T07:23:24.958Z,17.38
2018-02-19T07:24:24.920Z,17.38
2018-02-19T07:25:24.925Z,17.38
2018-02-19T07:26:24.931Z,17.4
2018-02-19T07:27:24.943Z,17.4
2018-02-19T07:28:24.988Z,17.4
2018-02-19T07:29:24.944Z,17.42
2018-02-19T07:30:24.944Z,17.46
2018-02-19T07:31:24.944Z,17.45
2018-02-19T07:32:24.934Z,17.48
2018-02-19T07:33:24.980Z,17.49
2018-02-19T07:34:27.219Z,17.49
2018-02-19T07:35:24.949Z,17.5
2018-02-19T07:36:24.955Z,17.5
2018-02-19T07:37:24.940Z,17.52
2018-02-19T07:38:24.939Z,17.56
2018-02-19T07:39:24.941Z,17.56
2018-02-19T07:40:26.970Z,17.57
2018-02-19T07:41:24.941Z,17.56
2018-02-19T07:42:26.468Z,17.57
2018-02-19T07:43:26.962Z,17.6
2018-02-19T07:44:27.370Z,17.59
2018-02-19T07:45:24.951Z,17.63
2018-02-19T07:46:26.964Z,17.61
2018-02-19T07:47:26.957Z,17.63
2018-02-19T07:48:27.115Z,17.63
2018-02-19T07:49:24.952Z,17.67
2018-02-19T07:50:26.975Z,17.66
2018-02-19T07:51:24.959Z,17.66
2018-02-19T07:52:26.956Z,17.67
2018-02-19T07:53:24.942Z,17.67
2018-02-19T07:54:24.938Z,17.67
2018-02-19T07:55:26.908Z,17.67
2018-02-19T07:56:26.486Z,17.67
2018-02-19T07:57:24.949Z,17.68
2018-02-19T07:58:24.954Z,17.68
2018-02-19T07:59:24.949Z,17.7
2018-02-19T08:00:24.958Z,17.74
2018-02-19T08:01:26.724Z,17.71
2018-02-19T08:02:25.225Z,17.74
2018-02-19T08:03:24.943Z,17.73
2018-02-19T08:04:26.974Z,17.73
2018-02-19T08:05:24.950Z,17.76
2018-02-19T08:06:24.978Z,17.74
2018-02-19T08:07:24.949Z,17.77
2018-02-19T08:08:24.980Z,17.8
2018-02-19T08:09:24.953Z,17.76
2018-02-19T08:10:24.961Z,17.76
2018-02-19T08:11:25.001Z,17.78
2018-02-19T08:12:28.382Z,17.78
2018-02-19T08:13:24.943Z,17.81
2018-02-19T08:14:24.950Z,17.78
2018-02-19T08:15:25.031Z,17.8
2018-02-19T08:16:24.935Z,17.81
2018-02-19T08:17:25.476Z,17.8
2018-02-19T08:18:25.484Z,17.8
2018-02-19T08:19:24.953Z,17.81
2018-02-19T08:20:24.974Z,17.82
2018-02-19T08:21:24.951Z,17.81
2018-02-19T08:22:24.942Z,17.81
2018-02-19T08:23:25.558Z,17.81
2018-02-19T08:24:24.999Z,17.82
2018-02-19T08:25:25.046Z,17.81
2018-02-19T08:26:25.500Z,17.82
2018-02-19T08:27:24.941Z,17.81
2018-02-19T08:28:24.933Z,17.82
2018-02-19T08:29:24.946Z,17.84
2018-02-19T08:30:24.930Z,17.84
2018-02-19T08:31:24.932Z,17.85
2018-02-19T08:32:24.938Z,17.84
2018-02-19T08:33:27.196Z,17.85
2018-02-19T08:34:24.931Z,17.84
2018-02-19T08:35:25.479Z,17.85
2018-02-19T08:36:24.948Z,17.85
2018-02-19T08:37:24.936Z,17.87
2018-02-19T08:38:24.932Z,17.84
2018-02-19T08:39:24.936Z,17.87
2018-02-19T08:40:24.972Z,17.87
2018-02-19T08:41:25.238Z,17.87
2018-02-19T08:42:25.408Z,17.88
2018-02-19T08:43:24.939Z,17.87
2018-02-19T08:44:24.931Z,17.84
2018-02-19T08:45:24.945Z,17.85
2018-02-19T08:46:25.514Z,17.88
2018-02-19T08:47:25.416Z,17.88
2018-02-19T08:48:24.925Z,17.89
2018-02-19T08:49:24.924Z,17.88
2018-02-19T08:50:24.923Z,17.89
2018-02-19T08:51:24.941Z,17.85
2018-02-19T08:52:24.922Z,17.87
2018-02-19T08:53:24.916Z,17.91
2018-02-19T08:54:25.505Z,17.89
2018-02-19T08:55:24.934Z,17.89
2018-02-19T08:56:25.476Z,17.89
2018-02-19T08:57:24.926Z,17.88
2018-02-19T08:58:24.918Z,17.89
2018-02-19T08:59:24.929Z,17.91
2018-02-19T09:00:24.955Z,17.91
2018-02-19T09:01:25.523Z,17.89
2018-02-19T09:02:24.932Z,17.89
2018-02-19T09:03:25.413Z,17.91
2018-02-19T09:04:24.936Z,17.88
2018-02-19T09:05:25.523Z,17.88
2018-02-19T09:06:24.925Z,17.91
2018-02-19T09:07:24.960Z,17.88
2018-02-19T09:08:24.942Z,17.87
2018-02-19T09:09:24.909Z,17.88
2018-02-19T09:10:25.489Z,17.91
2018-02-19T09:11:25.484Z,17.88
2018-02-19T09:12:24.931Z,17.87
2018-02-19T09:13:24.929Z,17.88
2018-02-19T09:14:24.941Z,17.91
2018-02-19T09:15:25.492Z,17.88
2018-02-19T09:16:25.510Z,17.87
2018-02-19T09:17:25.072Z,17.89
2018-02-19T09:18:25.404Z,17.88
2018-02-19T09:19:25.488Z,17.89
2018-02-19T09:20:24.915Z,17.88
2018-02-19T09:21:24.992Z,17.89
2018-02-19T09:22:24.991Z,17.88
2018-02-19T09:23:25.430Z,17.87
2018-02-19T09:24:24.928Z,17.85
2018-02-19T09:25:25.034Z,17.85
2018-02-19T09:26:24.928Z,17.88
2018-02-19T09:27:25.168Z,17.85
2018-02-19T09:28:25.276Z,17.85
2018-02-19T09:29:25.402Z,17.85
2018-02-19T09:30:24.933Z,17.85
2018-02-19T09:31:24.926Z,17.85
2018-02-19T09:32:25.514Z,17.85
2018-02-19T09:33:24.950Z,17.88
2018-02-19T09:34:24.932Z,17.84
2018-02-19T09:35:24.898Z,17.84
2018-02-19T09:36:24.958Z,17.87
2018-02-19T09:37:24.934Z,17.87
2018-02-19T09:38:25.146Z,17.85
2018-02-19T09:39:24.923Z,17.85
2018-02-19T09:40:25.410Z,17.85
2018-02-19T09:41:24.903Z,17.84
2018-02-19T09:42:24.902Z,17.85
2018-02-19T09:43:24.938Z,17.85
2018-02-19T09:44:24.926Z,17.84
2018-02-19T09:45:24.907Z,17.84
2018-02-19T09:46:24.940Z,17.82
2018-02-19T09:47:25.022Z,17.84
2018-02-19T09:48:24.909Z,17.84
2018-02-19T09:49:25.419Z,17.82
2018-02-19T09:50:25.417Z,17.81
2018-02-19T09:51:24.937Z,17.84
2018-02-19T09:52:24.918Z,17.82
2018-02-19T09:53:24.919Z,17.84
2018-02-19T09:54:24.907Z,17.84
2018-02-19T09:55:25.009Z,17.82
2018-02-19T09:56:25.412Z,17.82
2018-02-19T09:57:24.918Z,17.85
2018-02-19T09:58:24.890Z,17.82
2018-02-19T09:59:24.928Z,17.81
2018-02-19T10:00:24.929Z,17.85
2018-02-19T10:01:24.921Z,17.84
2018-02-19T10:02:24.925Z,17.82
2018-02-19T10:03:25.006Z,17.84
2018-02-19T10:04:24.898Z,17.82
2018-02-19T10:05:25.424Z,17.81
2018-02-19T10:06:24.952Z,17.82
2018-02-19T10:07:24.929Z,17.82
2018-02-19T10:08:25.007Z,17.82
2018-02-19T10:09:24.898Z,17.82
2018-02-19T10:10:24.931Z,17.84
2018-02-19T10:11:25.479Z,17.81
2018-02-19T10:12:24.921Z,17.84
2018-02-19T10:13:25.405Z,17.84
2018-02-19T10:14:24.959Z,17.84
2018-02-19T10:15:25.213Z,17.84
2018-02-19T10:16:24.947Z,17.84
2018-02-19T10:17:24.934Z,17.85
2018-02-19T10:18:24.944Z,17.87
2018-02-19T10:19:24.934Z,17.82
2018-02-19T10:20:24.913Z,17.85
2018-02-19T10:21:24.936Z,17.84
2018-02-19T10:22:24.939Z,17.88
2018-02-19T10:23:24.936Z,17.87
2018-02-19T10:24:25.413Z,17.85
2018-02-19T10:25:24.987Z,17.84
2018-02-19T10:26:25.572Z,17.87
2018-02-19T10:27:24.914Z,17.87
2018-02-19T10:28:24.915Z,17.87
2018-02-19T10:29:25.478Z,17.85
2018-02-19T10:30:24.908Z,17.85
2018-02-19T10:31:24.914Z,17.85
2018-02-19T10:32:24.892Z,17.85
2018-02-19T10:33:24.911Z,17.89
2018-02-19T10:34:24.890Z,17.87
2018-02-19T10:35:24.972Z,17.88
2018-02-19T10:36:24.945Z,17.88
2018-02-19T10:37:24.971Z,17.89
2018-02-19T10:38:25.488Z,17.88
2018-02-19T10:39:25.425Z,17.88
2018-02-19T10:40:24.924Z,17.89
2018-02-19T10:41:25.483Z,17.87
2018-02-19T10:42:24.924Z,17.89
2018-02-19T10:43:24.898Z,17.89
2018-02-19T10:44:24.899Z,17.88
2018-02-19T10:45:25.373Z,17.88
2018-02-19T10:46:24.900Z,17.91
2018-02-19T10:47:24.902Z,17.91
2018-02-19T10:48:24.969Z,17.88
2018-02-19T10:49:24.903Z,17.89
2018-02-19T10:50:24.904Z,17.93
2018-02-19T10:51:25.014Z,17.93
2018-02-19T10:52:25.366Z,17.93
2018-02-19T10:53:25.451Z,17.91
2018-02-19T10:54:24.903Z,17.89
2018-02-19T10:55:24.856Z,17.94
2018-02-19T10:56:24.912Z,17.91
2018-02-19T10:57:24.910Z,17.93
2018-02-19T10:58:25.371Z,17.93
2018-02-19T10:59:25.396Z,17.91
2018-02-19T11:00:24.937Z,17.93
2018-02-19T11:01:24.916Z,17.91
2018-02-19T11:02:24.867Z,17.91
2018-02-19T11:03:24.906Z,17.94
2018-02-19T11:04:24.862Z,17.93
2018-02-19T11:05:24.871Z,17.91
2018-02-19T11:06:24.917Z,17.94
2018-02-19T11:07:27.048Z,17.94
2018-02-19T11:08:26.395Z,17.91
2018-02-19T11:09:25.165Z,17.97
2018-02-19T11:10:24.876Z,17.93
2018-02-19T11:11:24.920Z,17.93
2018-02-19T11:12:24.875Z,17.97
2018-02-19T11:13:25.245Z,17.94
2018-02-19T11:14:24.916Z,17.95
2018-02-19T11:15:24.864Z,17.97
2018-02-19T11:16:24.885Z,17.95
2018-02-19T11:17:24.867Z,17.95
2018-02-19T11:18:24.876Z,17.95
2018-02-19T11:19:24.862Z,17.94
2018-02-19T11:20:25.197Z,17.95
2018-02-19T11:21:24.930Z,17.97
2018-02-19T11:22:26.390Z,17.98
2018-02-19T11:23:24.926Z,17.95
2018-02-19T11:24:24.876Z,17.95
2018-02-19T11:25:24.852Z,17.95
2018-02-19T11:26:24.956Z,17.95
2018-02-19T11:27:24.868Z,17.95
2018-02-19T11:28:24.932Z,17.94
2018-02-19T11:29:24.934Z,17.95
2018-02-19T11:30:24.961Z,17.97
2018-02-19T11:31:24.957Z,17.97
2018-02-19T11:32:24.940Z,17.97
2018-02-19T11:33:24.932Z,17.94
2018-02-19T11:34:24.870Z,17.97
2018-02-19T11:35:24.854Z,17.98
2018-02-19T11:36:24.893Z,17.95
2018-02-19T11:37:24.939Z,17.98
2018-02-19T11:38:24.888Z,17.95
2018-02-19T11:39:25.029Z,17.95
2018-02-19T11:40:24.897Z,17.98
2018-02-19T11:41:24.941Z,17.95
2018-02-19T11:42:24.855Z,17.98
2018-02-19T11:43:24.878Z,17.95
2018-02-19T11:44:24.853Z,17.95
2018-02-19T11:45:24.860Z,17.95
2018-02-19T11:46:24.943Z,17.97
2018-02-19T11:47:24.863Z,17.98
2018-02-19T11:48:24.881Z,17.98
2018-02-19T11:49:24.946Z,17.97
2018-02-19T11:50:24.865Z,17.97
2018-02-19T11:51:24.895Z,17.98
2018-02-19T11:52:25.503Z,18
2018-02-19T11:53:24.862Z,17.98
2018-02-19T11:54:24.859Z,18
2018-02-19T11:55:24.893Z,17.97
2018-02-19T11:56:24.854Z,17.97
2018-02-19T11:57:24.867Z,17.97
2018-02-19T11:58:24.861Z,17.98
2018-02-19T11:59:24.869Z,17.97
2018-02-19T12:00:24.856Z,18.01
2018-02-19T12:01:24.858Z,18
2018-02-19T12:02:24.867Z,17.97
2018-02-19T12:03:24.890Z,18
2018-02-19T12:04:24.888Z,18.01
2018-02-19T12:05:24.843Z,17.98
2018-02-19T12:06:24.882Z,17.98
2018-02-19T12:07:24.844Z,18
2018-02-19T12:08:24.867Z,18.01
2018-02-19T12:09:24.886Z,18
2018-02-19T12:10:24.847Z,17.98
2018-02-19T12:11:24.848Z,17.98
2018-02-19T12:12:25.662Z,18.01
2018-02-19T12:13:24.856Z,18.02
2018-02-19T12:14:24.902Z,18
2018-02-19T12:15:24.845Z,17.98
2018-02-19T12:16:24.852Z,18
2018-02-19T12:17:24.851Z,18.01
2018-02-19T12:18:24.849Z,18.01
2018-02-19T12:19:24.845Z,18
2018-02-19T12:20:24.851Z,18.02
2018-02-19T12:21:24.850Z,18
2018-02-19T12:22:24.851Z,18.01
2018-02-19T12:23:24.847Z,18.01
2018-02-19T12:24:24.850Z,18
2018-02-19T12:25:24.831Z,18.01
2018-02-19T12:26:24.975Z,18.01
2018-02-19T12:27:24.823Z,18.01
2018-02-19T12:28:24.860Z,18
2018-02-19T12:29:24.828Z,18.01
2018-02-19T12:30:24.822Z,18
2018-02-19T12:31:24.830Z,18.01
2018-02-19T12:32:24.837Z,18
2018-02-19T12:33:24.838Z,18.04
2018-02-19T12:34:25.080Z,18.02
2018-02-19T12:35:24.827Z,18
2018-02-19T12:36:24.828Z,18
2018-02-19T12:37:24.836Z,18
2018-02-19T12:38:24.889Z,18.01
2018-02-19T12:39:24.834Z,18.01
2018-02-19T12:40:25.409Z,18
2018-02-19T12:41:24.842Z,18
2018-02-19T12:42:24.828Z,18
2018-02-19T12:43:24.832Z,17.98
2018-02-19T12:44:24.840Z,18.02
2018-02-19T12:49:41.637Z,18.05
2018-02-19T12:50:41.189Z,18.08
2018-02-19T12:51:41.196Z,18.07
2018-02-19T12:52:41.193Z,18.08
2018-02-19T12:53:41.193Z,18.07
2018-02-19T12:54:41.198Z,18.09
2018-02-19T12:55:41.216Z,18.09
2018-02-19T12:56:41.201Z,18.11
2018-02-19T12:57:41.196Z,18.12
2018-02-19T12:58:41.178Z,18.12
2018-02-19T12:59:41.182Z,18.12
2018-02-19T13:00:41.193Z,18.13